Time;durP1;ratioP1;P1;durP2;ratioP2;P2;SDS_P1;SDS_P2;PMS_P1;PMS_P2;Temp;Humidity;BMP_temperature;BMP_pressure;BME280_temperature;BME280_humidity;BME280_pressure;Samples;Min_cycle;Max_cycle;Signal;HPM_P1;HPM_P2
2022/08/15 00:01:25;;;;;;;12.02;5.32;;;23.20;99.90;;;;;;5118818;28;20016;-75
2022/08/15 00:03:58;;;;;;;10.15;4.78;;;23.20;99.90;;;;;;5114918;28;20020;-75
2022/08/15 00:06:31;;;;;;;10.05;5.65;;;23.30;99.90;;;;;;5116870;28;20108;-74
2022/08/15 00:08:58;;;;;;;8.93;5.53;;;23.20;99.90;;;;;;5117091;28;20016;-74
2022/08/15 00:11:33;;;;;;;14.60;6.15;;;23.20;99.90;;;;;;5116701;28;20505;-74
2022/08/15 00:14:09;;;;;;;11.45;5.60;;;23.20;99.90;;;;;;5107766;28;20016;-74
2022/08/15 00:16:38;;;;;;;10.93;6.15;;;23.20;99.90;;;;;;5117817;28;20016;-75
2022/08/15 00:19:09;;;;;;;9.82;5.50;;;23.20;99.90;;;;;;5111322;28;20066;-75
2022/08/15 00:21:38;;;;;;;9.48;5.53;;;23.20;99.90;;;;;;5118016;28;20077;-75
2022/08/15 00:24:05;;;;;;;8.70;5.20;;;23.10;99.90;;;;;;5117957;28;20024;-75
2022/08/15 00:26:34;;;;;;;9.23;5.35;;;23.10;99.90;;;;;;5117572;28;20056;-75
2022/08/15 00:29:02;;;;;;;9.38;4.72;;;23.10;99.90;;;;;;5117616;28;20031;-75
2022/08/15 00:31:31;;;;;;;10.50;5.50;;;23.10;99.90;;;;;;5116385;28;20023;-77
2022/08/15 00:34:01;;;;;;;9.55;5.50;;;23.20;99.90;;;;;;5118008;28;20020;-77
2022/08/15 00:36:30;;;;;;;6.18;5.30;;;23.10;99.90;;;;;;5115495;28;20026;-75
2022/08/15 00:39:00;;;;;;;7.03;5.38;;;23.10;99.90;;;;;;5114001;28;20023;-76
2022/08/15 00:41:39;;;;;;;11.18;5.68;;;23.20;99.90;;;;;;5115897;28;20030;-77
2022/08/15 00:44:13;;;;;;;11.65;6.00;;;23.10;99.90;;;;;;5108731;28;20047;-77
2022/08/15 00:46:45;;;;;;;15.23;4.85;;;23.10;99.90;;;;;;5110702;28;20042;-77
2022/08/15 00:49:12;;;;;;;8.18;5.50;;;23.10;99.90;;;;;;5111376;28;20030;-77
2022/08/15 00:51:56;;;;;;;18.55;5.93;;;23.10;99.90;;;;;;5115126;28;20392;-77
2022/08/15 00:54:29;;;;;;;7.75;5.03;;;23.00;99.90;;;;;;5110161;28;20073;-77
2022/08/15 00:57:23;;;;;;;12.05;5.32;;;23.00;99.90;;;;;;5107707;28;20020;-77
2022/08/15 00:59:55;;;;;;;12.10;5.47;;;23.00;99.90;;;;;;5110560;28;20100;-77
2022/08/15 01:02:25;;;;;;;11.02;5.22;;;23.00;99.90;;;;;;5116384;28;20031;-77
2022/08/15 01:04:51;;;;;;;12.80;5.82;;;22.90;99.90;;;;;;5116203;28;20053;-77
2022/08/15 01:07:19;;;;;;;9.32;5.25;;;22.90;99.90;;;;;;5117371;28;20020;-77
2022/08/15 01:09:45;;;;;;;8.80;4.30;;;22.90;99.90;;;;;;5116338;28;20032;-77
2022/08/15 01:12:17;;;;;;;11.63;4.70;;;22.90;99.90;;;;;;5117090;28;20507;-77
2022/08/15 01:14:51;;;;;;;8.70;4.65;;;22.90;99.90;;;;;;5113208;28;20029;-77
2022/08/15 01:17:18;;;;;;;8.93;4.15;;;22.80;99.90;;;;;;5109711;28;20104;-77
2022/08/15 01:19:50;;;;;;;7.45;4.38;;;22.80;99.90;;;;;;5113998;28;20111;-77
2022/08/15 01:22:35;;;;;;;8.88;4.30;;;22.80;99.90;;;;;;5114359;28;20055;-77
2022/08/15 01:25:11;;;;;;;10.00;4.43;;;22.80;99.90;;;;;;5110609;28;20031;-77
2022/08/15 01:27:45;;;;;;;14.63;4.70;;;22.80;99.90;;;;;;5116125;28;20039;-77
2022/08/15 01:30:15;;;;;;;8.52;4.07;;;22.80;99.90;;;;;;5117369;28;20020;-77
2022/08/15 01:32:42;;;;;;;11.32;4.00;;;22.80;99.90;;;;;;5108149;28;20023;-77
2022/08/15 01:35:09;;;;;;;6.38;3.53;;;22.70;99.90;;;;;;5117884;28;20023;-78
2022/08/15 01:37:38;;;;;;;9.85;3.92;;;22.60;99.90;;;;;;5113822;28;20072;-75
2022/08/15 01:40:40;;;;;;;8.45;4.03;;;22.60;99.90;;;;;;5119666;28;20500;-77
2022/08/15 01:43:09;;;;;;;8.38;4.25;;;22.50;99.90;;;;;;5118592;28;20152;-76
2022/08/15 01:45:39;;;;;;;7.85;4.13;;;22.50;99.90;;;;;;5119905;28;20024;-77
2022/08/15 01:48:16;;;;;;;8.93;3.55;;;22.40;99.90;;;;;;5109824;28;20051;-77
2022/08/15 01:50:53;;;;;;;12.55;4.47;;;22.30;99.90;;;;;;5120916;28;20378;-76
2022/08/15 01:53:28;;;;;;;6.75;4.20;;;22.30;99.90;;;;;;5119692;28;20093;-78
2022/08/15 01:56:05;;;;;;;9.00;4.45;;;22.20;99.90;;;;;;5117998;28;20028;-76
2022/08/15 01:58:37;;;;;;;11.98;4.07;;;22.20;99.90;;;;;;5114528;28;20491;-76
2022/08/15 02:01:13;;;;;;;11.60;4.82;;;22.20;99.90;;;;;;5117845;28;20028;-76
2022/08/15 02:03:41;;;;;;;8.00;3.95;;;22.20;99.90;;;;;;5118943;28;20373;-77
2022/08/15 02:06:14;;;;;;;8.05;3.78;;;22.20;99.90;;;;;;5119774;28;20027;-77
2022/08/15 02:08:41;;;;;;;9.60;4.28;;;22.20;99.90;;;;;;5120754;28;20030;-77
2022/08/15 02:11:11;;;;;;;10.82;4.22;;;22.10;99.90;;;;;;5114227;28;20024;-77
2022/08/15 02:13:37;;;;;;;9.02;5.00;;;22.10;99.90;;;;;;5111203;28;20042;-77
2022/08/15 02:16:04;;;;;;;9.38;4.45;;;22.10;99.90;;;;;;5110009;28;20047;-77
2022/08/15 02:18:30;;;;;;;9.05;4.30;;;22.00;99.90;;;;;;5118800;28;20031;-76
2022/08/15 02:20:57;;;;;;;7.43;4.18;;;22.00;99.90;;;;;;5117767;28;20051;-76
2022/08/15 02:23:24;;;;;;;9.80;3.95;;;22.00;99.90;;;;;;5120228;28;20024;-76
2022/08/15 02:25:52;;;;;;;9.70;4.47;;;21.90;99.90;;;;;;5120179;28;20076;-76
2022/08/15 02:28:18;;;;;;;7.82;3.95;;;21.90;99.90;;;;;;5116555;28;20038;-76
2022/08/15 02:30:45;;;;;;;7.60;4.13;;;21.90;99.90;;;;;;5120263;28;20019;-76
2022/08/15 02:33:12;;;;;;;6.78;3.60;;;21.90;99.90;;;;;;5111546;28;20110;-76
2022/08/15 02:35:39;;;;;;;12.13;4.32;;;21.80;99.90;;;;;;5120430;28;20012;-76
2022/08/15 02:38:05;;;;;;;15.82;4.90;;;21.70;99.90;;;;;;5111048;28;20031;-76
2022/08/15 02:40:33;;;;;;;8.18;4.75;;;21.60;99.90;;;;;;5120084;28;20077;-77
2022/08/15 02:43:08;;;;;;;8.63;4.65;;;21.50;99.90;;;;;;5108644;28;20053;-77
2022/08/15 02:45:38;;;;;;;11.32;4.45;;;21.50;99.90;;;;;;5118346;28;20087;-77
2022/08/15 02:48:08;;;;;;;12.90;4.65;;;21.40;99.90;;;;;;5111005;28;20027;-76
2022/08/15 02:50:35;;;;;;;12.02;4.38;;;21.40;99.90;;;;;;5119862;28;20375;-77
2022/08/15 02:53:13;;;;;;;9.65;4.13;;;21.30;99.90;;;;;;5109192;28;20032;-77
2022/08/15 02:55:45;;;;;;;10.68;4.50;;;21.30;99.90;;;;;;5118463;28;20019;-76
2022/08/15 02:58:13;;;;;;;13.13;5.60;;;21.30;99.90;;;;;;5119682;28;20514;-76
2022/08/15 03:00:42;;;;;;;8.75;3.95;;;21.30;99.90;;;;;;5119958;28;20022;-76
2022/08/15 03:03:12;;;;;;;11.10;4.30;;;21.30;99.90;;;;;;5118431;28;20027;-75
2022/08/15 03:05:42;;;;;;;12.00;5.18;;;21.30;99.90;;;;;;5118250;28;20023;-74
2022/08/15 03:08:08;;;;;;;13.25;4.60;;;21.40;99.90;;;;;;5119693;28;20027;-75
2022/08/15 03:10:37;;;;;;;12.57;4.53;;;21.40;99.90;;;;;;5115149;28;20066;-75
2022/08/15 03:13:12;;;;;;;8.50;4.28;;;21.30;99.90;;;;;;5119662;28;20023;-76
2022/08/15 03:15:53;;;;;;;12.02;4.45;;;21.30;99.90;;;;;;5118913;28;20029;-76
2022/08/15 03:18:20;;;;;;;9.68;5.20;;;21.30;99.90;;;;;;5108581;28;20583;-77
2022/08/15 03:20:51;;;;;;;8.80;4.60;;;21.20;99.90;;;;;;5119070;28;20027;-77
2022/08/15 03:23:18;;;;;;;9.00;4.90;;;21.10;99.90;;;;;;5118013;28;20032;-76
2022/08/15 03:25:51;;;;;;;13.60;5.25;;;21.10;99.90;;;;;;5118335;28;20126;-76
2022/08/15 03:28:23;;;;;;;10.02;4.68;;;21.10;99.90;;;;;;5111344;28;20066;-74
2022/08/15 03:30:49;;;;;;;8.25;4.03;;;21.10;99.90;;;;;;5119013;28;20020;-75
2022/08/15 03:33:16;;;;;;;12.23;4.75;;;21.10;99.90;;;;;;5116831;28;20020;-74
2022/08/15 03:35:47;;;;;;;13.65;4.93;;;21.10;99.90;;;;;;5117785;28;20031;-74
2022/08/15 03:38:13;;;;;;;8.70;4.90;;;21.10;99.90;;;;;;5118453;28;20102;-75
2022/08/15 03:40:41;;;;;;;12.48;4.88;;;21.10;99.90;;;;;;5117413;28;20024;-74
2022/08/15 03:43:13;;;;;;;13.00;4.70;;;21.20;99.90;;;;;;5118735;28;20106;-75
2022/08/15 03:45:45;;;;;;;14.18;5.15;;;21.20;99.90;;;;;;5111549;28;20019;-74
2022/08/15 03:48:11;;;;;;;11.52;4.20;;;21.20;99.90;;;;;;5118651;28;20035;-74
2022/08/15 03:50:37;;;;;;;9.13;4.13;;;21.20;99.90;;;;;;5118547;28;20020;-75
2022/08/15 03:53:06;;;;;;;10.40;4.05;;;21.20;99.90;;;;;;5118388;28;20548;-74
2022/08/15 03:55:35;;;;;;;8.45;3.88;;;21.20;99.90;;;;;;5117260;28;20102;-75
2022/08/15 03:58:01;;;;;;;8.25;3.90;;;21.10;99.90;;;;;;5118298;28;20020;-75
2022/08/15 04:00:32;;;;;;;7.20;3.95;;;21.10;99.90;;;;;;5118451;28;20020;-74
2022/08/15 04:03:22;;;;;;;6.88;3.78;;;21.20;99.90;;;;;;5117647;28;20034;-74
2022/08/15 04:05:54;;;;;;;7.05;3.45;;;21.20;99.90;;;;;;5115762;28;20110;-75
2022/08/15 04:08:23;;;;;;;10.15;4.03;;;21.20;99.90;;;;;;5118460;28;20019;-74
2022/08/15 04:10:51;;;;;;;8.15;3.70;;;21.10;99.90;;;;;;5116861;28;20024;-74
2022/08/15 04:13:19;;;;;;;17.20;5.50;;;21.20;99.90;;;;;;5116316;28;20027;-75
2022/08/15 04:15:45;;;;;;;9.50;4.65;;;21.20;99.90;;;;;;5118596;28;20098;-74
2022/08/15 04:18:11;;;;;;;8.35;4.45;;;21.20;99.90;;;;;;5107306;28;20081;-74
2022/08/15 04:20:37;;;;;;;5.07;3.65;;;21.10;99.90;;;;;;5116879;28;20495;-74
2022/08/15 04:23:06;;;;;;;9.75;4.32;;;21.10;99.90;;;;;;5118262;27;20066;-75
2022/08/15 04:25:36;;;;;;;9.20;4.10;;;21.10;99.90;;;;;;5116421;28;20111;-75
2022/08/15 04:28:05;;;;;;;12.30;4.00;;;21.10;99.90;;;;;;5116017;28;20034;-75
2022/08/15 04:30:37;;;;;;;11.27;4.50;;;21.00;99.90;;;;;;5118206;28;20491;-74
2022/08/15 04:33:11;;;;;;;8.07;3.78;;;21.00;99.90;;;;;;5115949;28;20019;-75
2022/08/15 04:35:40;;;;;;;9.40;4.25;;;21.00;99.90;;;;;;5118140;28;20068;-75
2022/08/15 04:38:06;;;;;;;10.52;3.85;;;21.00;99.90;;;;;;5116256;28;20020;-75
2022/08/15 04:40:33;;;;;;;15.15;5.22;;;20.90;99.90;;;;;;5117808;28;20391;-75
2022/08/15 04:43:00;;;;;;;7.65;3.63;;;21.00;99.90;;;;;;5117691;28;20157;-75
2022/08/15 04:45:28;;;;;;;10.32;4.80;;;20.90;99.90;;;;;;5115647;28;20057;-75
2022/08/15 04:47:54;;;;;;;11.65;4.82;;;20.90;99.90;;;;;;5117328;28;20027;-75
2022/08/15 04:50:20;;;;;;;13.10;4.55;;;20.90;99.90;;;;;;5117533;28;20099;-74
2022/08/15 04:52:52;;;;;;;9.65;4.43;;;20.80;99.90;;;;;;5117417;28;20379;-75
2022/08/15 04:55:19;;;;;;;10.45;5.10;;;20.80;99.90;;;;;;5117518;28;20099;-74
2022/08/15 04:57:45;;;;;;;13.18;5.13;;;20.70;99.90;;;;;;5117881;28;20106;-74
2022/08/15 05:00:15;;;;;;;6.72;4.40;;;20.60;99.90;;;;;;5116108;28;20026;-76
2022/08/15 05:02:41;;;;;;;9.80;4.03;;;20.50;99.90;;;;;;5117267;28;20023;-74
2022/08/15 05:05:09;;;;;;;11.70;4.65;;;20.50;99.90;;;;;;5116341;28;20060;-75
2022/08/15 05:07:36;;;;;;;9.48;4.45;;;20.40;99.90;;;;;;5116665;28;20080;-75
2022/08/15 05:10:04;;;;;;;10.77;4.72;;;20.30;99.90;;;;;;5117467;28;20028;-75
2022/08/15 05:12:31;;;;;;;9.27;3.97;;;20.30;99.90;;;;;;5109531;28;20503;-74
2022/08/15 05:14:57;;;;;;;6.30;4.20;;;20.20;99.90;;;;;;5110609;28;20479;-74
2022/08/15 05:17:23;;;;;;;10.35;4.45;;;20.20;99.90;;;;;;5120559;28;20020;-74
2022/08/15 05:19:49;;;;;;;14.65;4.53;;;20.20;99.90;;;;;;5110636;28;20053;-74
2022/08/15 05:22:17;;;;;;;6.47;4.70;;;20.10;99.90;;;;;;5120200;28;20028;-74
2022/08/15 05:24:43;;;;;;;7.15;4.00;;;20.10;99.90;;;;;;5109609;28;20024;-74
2022/08/15 05:27:09;;;;;;;10.07;4.88;;;20.10;99.90;;;;;;5119860;28;20055;-74
2022/08/15 05:29:35;;;;;;;7.05;4.35;;;20.20;99.90;;;;;;5115426;28;20027;-75
2022/08/15 05:32:01;;;;;;;8.10;3.85;;;20.20;99.90;;;;;;5120050;28;20135;-75
2022/08/15 05:34:28;;;;;;;7.32;4.13;;;20.30;99.90;;;;;;5121299;28;20019;-75
2022/08/15 05:36:54;;;;;;;9.88;4.18;;;20.40;99.90;;;;;;5119143;28;20023;-74
2022/08/15 05:39:27;;;;;;;8.73;3.90;;;20.60;99.90;;;;;;5110347;28;20106;-75
2022/08/15 05:42:12;;;;;;;10.98;6.32;;;20.70;99.90;;;;;;5121029;28;20043;-74
2022/08/15 05:45:05;;;;;;;11.48;4.60;;;20.70;99.90;;;;;;5120663;28;20038;-74
2022/08/15 05:47:39;;;;;;;10.38;4.88;;;20.70;99.90;;;;;;5119314;28;20062;-75
2022/08/15 05:50:27;;;;;;;11.85;3.75;;;20.80;99.90;;;;;;5121149;28;20026;-74
2022/08/15 05:53:18;;;;;;;9.52;4.60;;;20.80;99.90;;;;;;5118648;28;20028;-75
2022/08/15 05:55:52;;;;;;;12.60;4.40;;;20.80;99.90;;;;;;5118908;28;20011;-74
2022/08/15 05:58:45;;;;;;;6.80;4.30;;;20.90;99.90;;;;;;5121081;28;20027;-74
2022/08/15 06:01:16;;;;;;;7.68;5.00;;;20.90;99.90;;;;;;5119559;28;20072;-75
2022/08/15 06:03:56;;;;;;;11.15;4.78;;;20.90;99.90;;;;;;5121289;28;20028;-75
2022/08/15 06:06:27;;;;;;;10.32;5.00;;;20.90;99.90;;;;;;5109222;28;20026;-75
2022/08/15 06:09:00;;;;;;;6.68;4.47;;;20.90;99.90;;;;;;5119572;28;20027;-74
2022/08/15 06:11:33;;;;;;;14.25;4.45;;;20.90;99.90;;;;;;5111349;28;20012;-76
2022/08/15 06:14:19;;;;;;;12.75;4.10;;;21.00;99.90;;;;;;5119539;28;20020;-75
2022/08/15 06:16:55;;;;;;;10.52;3.97;;;21.00;99.90;;;;;;5113830;28;20091;-75
2022/08/15 06:19:31;;;;;;;8.65;4.57;;;21.10;99.90;;;;;;5120525;28;20059;-75
2022/08/15 06:22:08;;;;;;;11.70;4.55;;;21.10;99.90;;;;;;5120026;28;20023;-74
2022/08/15 06:24:46;;;;;;;10.52;4.57;;;21.10;99.90;;;;;;5120107;28;20031;-74
2022/08/15 06:27:40;;;;;;;6.88;4.28;;;21.20;99.90;;;;;;5120132;28;20472;-75
2022/08/15 06:30:13;;;;;;;13.63;4.38;;;21.30;99.90;;;;;;5120306;28;20027;-74
2022/08/15 06:32:58;;;;;;;8.90;4.18;;;21.40;99.90;;;;;;5098740;28;20044;-75
2022/08/15 06:35:59;;;;;;;11.75;4.95;;;21.40;99.90;;;;;;5108142;28;20077;-74
2022/08/15 06:38:37;;;;;;;7.68;3.97;;;21.40;99.90;;;;;;5118630;28;20491;-74
2022/08/15 06:41:14;;;;;;;5.90;4.25;;;21.40;99.90;;;;;;5118872;28;20015;-74
2022/08/15 06:43:43;;;;;;;8.82;4.53;;;21.40;99.90;;;;;;5109481;28;20032;-74
2022/08/15 06:46:09;;;;;;;11.18;4.72;;;21.40;99.90;;;;;;5111942;28;20028;-74
2022/08/15 06:48:39;;;;;;;11.02;4.95;;;21.50;99.90;;;;;;5118646;28;20031;-75
2022/08/15 06:51:07;;;;;;;8.82;3.92;;;21.50;99.90;;;;;;5110740;28;20050;-74
2022/08/15 06:53:46;;;;;;;7.28;4.00;;;21.70;99.90;;;;;;5118796;28;20062;-74
2022/08/15 06:56:26;;;;;;;35.53;7.60;;;21.70;99.90;;;;;;5119664;28;20027;-74
2022/08/15 06:59:03;;;;;;;9.52;4.15;;;21.70;99.90;;;;;;5119616;28;20075;-75
2022/08/15 07:01:52;;;;;;;5.47;3.58;;;21.70;99.90;;;;;;5119785;28;20023;-75
2022/08/15 07:04:42;;;;;;;6.57;4.45;;;21.80;99.90;;;;;;5119490;28;20019;-74
2022/08/15 07:07:18;;;;;;;;;;;21.80;99.90;;;;;;5117413;28;20060;-77
2022/08/15 07:09:54;;;;;;;10.93;5.00;;;21.90;99.90;;;;;;5118338;28;19908;-76
2022/08/15 07:12:25;;;;;;;10.27;4.30;;;21.90;99.90;;;;;;5118456;28;20028;-77
2022/08/15 07:15:11;;;;;;;10.38;4.38;;;21.90;99.90;;;;;;5115910;28;20024;-75
2022/08/15 07:17:39;;;;;;;11.23;4.03;;;21.90;99.90;;;;;;5110314;28;20453;-79
2022/08/15 07:20:07;;;;;;;10.75;4.32;;;21.90;99.90;;;;;;5101378;28;20416;-79
2022/08/15 07:22:34;;;;;;;8.70;4.75;;;21.90;99.90;;;;;;5112921;28;20054;-77
2022/08/15 07:25:01;;;;;;;6.88;4.03;;;21.90;99.90;;;;;;5105443;28;20076;-78
2022/08/15 07:27:37;;;;;;;9.27;4.80;;;22.00;99.90;;;;;;5117877;28;20024;-78
2022/08/15 07:30:18;;;;;;;11.32;5.20;;;22.10;99.90;;;;;;5114099;28;20130;-77
2022/08/15 07:32:50;;;;;;;9.90;4.40;;;22.10;99.90;;;;;;5116875;28;20395;-77
2022/08/15 07:35:16;;;;;;;9.48;4.50;;;22.20;99.90;;;;;;5117310;28;20402;-77
2022/08/15 07:37:56;;;;;;;7.90;4.38;;;22.30;99.90;;;;;;5117057;28;20038;-77
2022/08/15 07:40:36;;;;;;;11.07;4.73;;;22.40;99.90;;;;;;5117474;28;20016;-77
2022/08/15 07:43:25;;;;;;;7.65;4.47;;;22.60;99.90;;;;;;5117321;28;20012;-79
2022/08/15 07:46:06;;;;;;;6.82;4.15;;;22.80;99.90;;;;;;5117375;28;20031;-78
2022/08/15 07:48:33;;;;;;;9.32;4.82;;;23.10;99.90;;;;;;5108167;28;20436;-79
2022/08/15 07:51:14;;;;;;;9.93;4.88;;;23.00;99.90;;;;;;5111604;28;20063;-79
2022/08/15 07:53:59;;;;;;;10.63;4.63;;;22.90;99.90;;;;;;5115617;28;20542;-80
2022/08/15 07:56:28;;;;;;;12.93;4.60;;;22.70;99.90;;;;;;5113397;28;20030;-79
2022/08/15 07:59:16;;;;;;;9.98;5.13;;;22.60;99.90;;;;;;5118363;28;20375;-78
2022/08/15 08:01:46;;;;;;;10.43;4.75;;;22.70;99.90;;;;;;5108419;28;20031;-78
2022/08/15 08:04:23;;;;;;;8.35;4.10;;;22.70;99.90;;;;;;5118281;28;20483;-79
2022/08/15 08:06:59;;;;;;;9.20;4.88;;;22.70;99.90;;;;;;5111340;28;20024;-78
2022/08/15 08:09:33;;;;;;;8.43;5.45;;;22.70;99.90;;;;;;5116734;28;20084;-78
2022/08/15 08:12:26;;;;;;;5.93;4.05;;;22.90;99.90;;;;;;5109094;28;20034;-77
2022/08/15 08:15:20;;;;;;;14.55;4.68;;;23.10;99.90;;;;;;5116484;28;20612;-78
2022/08/15 08:18:08;;;;;;;13.57;4.93;;;23.10;99.90;;;;;;5116302;28;20165;-77
2022/08/15 08:20:41;;;;;;;8.75;4.68;;;23.20;99.90;;;;;;5118275;28;20379;-77
2022/08/15 08:23:21;;;;;;;10.43;4.60;;;23.20;99.90;;;;;;5111433;28;20018;-78
2022/08/15 08:26:06;;;;;;;9.60;4.45;;;23.20;99.90;;;;;;5096270;28;20044;-78
2022/08/15 08:28:38;;;;;;;9.35;5.22;;;23.20;99.90;;;;;;5117631;28;20027;-78
2022/08/15 08:31:28;;;;;;;10.63;3.63;;;23.30;99.90;;;;;;5117852;28;20044;-78
2022/08/15 08:34:02;;;;;;;9.68;4.38;;;23.40;99.90;;;;;;5116789;28;20425;-78
2022/08/15 08:36:36;;;;;;;14.57;4.72;;;23.60;99.90;;;;;;5117841;28;20019;-78
2022/08/15 08:39:34;;;;;;;10.25;5.05;;;23.50;99.90;;;;;;5113740;28;20034;-77
2022/08/15 08:42:40;;;;;;;9.50;4.65;;;23.40;99.90;;;;;;5102085;28;20534;-78
2022/08/15 08:45:28;;;;;;;14.95;4.70;;;23.60;99.90;;;;;;5119021;27;20442;-78
2022/08/15 08:47:58;;;;;;;9.45;4.30;;;23.90;99.90;;;;;;5116106;28;20020;-78
2022/08/15 08:50:39;;;;;;;8.95;4.75;;;24.20;99.90;;;;;;5117969;28;20030;-77
2022/08/15 08:53:19;;;;;;;9.73;4.10;;;24.30;99.90;;;;;;5117500;28;20111;-78
2022/08/15 08:55:58;;;;;;;8.95;4.03;;;24.10;99.90;;;;;;5112739;28;20087;-75
2022/08/15 08:58:33;;;;;;;7.55;4.25;;;24.00;99.90;;;;;;5107436;28;20027;-74
2022/08/15 09:00:59;;;;;;;9.63;4.32;;;23.90;99.90;;;;;;5117410;28;20383;-75
2022/08/15 09:03:46;;;;;;;8.52;4.13;;;23.90;99.90;;;;;;5115222;28;20110;-74
2022/08/15 09:06:18;;;;;;;8.43;4.00;;;23.70;99.90;;;;;;5107663;28;20065;-74
2022/08/15 09:08:51;;;;;;;12.95;4.82;;;23.80;99.90;;;;;;5117605;28;20024;-74
2022/08/15 09:11:44;;;;;;;7.43;4.18;;;24.00;99.90;;;;;;5116229;28;20020;-75
2022/08/15 09:14:21;;;;;;;8.18;3.80;;;24.20;99.90;;;;;;5106941;28;20035;-74
2022/08/15 09:16:49;;;;;;;8.32;4.05;;;24.40;99.90;;;;;;5112726;28;20047;-75
2022/08/15 09:19:21;;;;;;;7.13;4.10;;;24.60;99.90;;;;;;5115442;28;20544;-74
2022/08/15 09:21:47;;;;;;;9.48;4.00;;;24.80;99.90;;;;;;5115151;28;20019;-75
2022/08/15 09:24:16;;;;;;;10.70;4.35;;;24.90;99.90;;;;;;5113837;28;20035;-74
2022/08/15 09:27:07;;;;;;;13.38;3.88;;;25.00;99.90;;;;;;5114830;28;20043;-74
2022/08/15 09:29:36;;;;;;;9.52;4.07;;;25.10;99.90;;;;;;5111424;28;20032;-73
2022/08/15 09:32:20;;;;;;;12.77;4.38;;;25.20;99.90;;;;;;5098079;28;20069;-73
2022/08/15 09:35:10;;;;;;;7.85;3.92;;;25.30;99.90;;;;;;5109630;28;20026;-72
2022/08/15 09:38:10;;;;;;;9.68;4.32;;;25.30;99.90;;;;;;5116094;28;20023;-72
2022/08/15 09:40:49;;;;;;;16.05;4.30;;;25.60;99.90;;;;;;5110043;28;20027;-73
2022/08/15 09:43:40;;;;;;;9.80;3.35;;;25.70;99.90;;;;;;5095533;28;20034;-73
2022/08/15 09:46:09;;;;;;;8.15;3.38;;;25.80;99.70;;;;;;5099486;28;20068;-73
2022/08/15 09:48:47;;;;;;;12.13;4.05;;;25.90;99.50;;;;;;5112238;28;20032;-73
2022/08/15 09:51:48;;;;;;;11.07;4.43;;;26.00;99.50;;;;;;5109781;28;20102;-72
2022/08/15 09:54:24;;;;;;;10.23;4.35;;;25.90;98.50;;;;;;5110659;28;20501;-72
2022/08/15 09:57:22;;;;;;;10.45;4.38;;;25.90;99.30;;;;;;5108975;28;20024;-72
2022/08/15 09:59:56;;;;;;;9.10;3.83;;;26.10;98.30;;;;;;5117709;28;20487;-73
2022/08/15 10:02:24;;;;;;;12.68;4.72;;;26.10;97.70;;;;;;5119467;28;20027;-72
2022/08/15 10:04:50;;;;;;;6.40;3.97;;;26.00;98.20;;;;;;5119745;28;20083;-72
2022/08/15 10:07:16;;;;;;;7.05;3.67;;;26.20;97.80;;;;;;5112960;28;20560;-73
2022/08/15 10:10:04;;;;;;;10.73;3.78;;;26.20;98.80;;;;;;5114940;28;20062;-73
2022/08/15 10:12:32;;;;;;;13.73;3.88;;;26.20;98.50;;;;;;5119519;28;20019;-73
2022/08/15 10:15:31;;;;;;;12.73;3.80;;;26.40;97.40;;;;;;5119594;28;20764;-72
2022/08/15 10:17:58;;;;;;;11.75;3.90;;;26.60;97.10;;;;;;5118397;28;20502;-73
2022/08/15 10:20:26;;;;;;;7.90;4.22;;;27.00;97.20;;;;;;5115173;28;20016;-73
2022/08/15 10:22:56;;;;;;;9.10;3.03;;;27.10;96.30;;;;;;5115565;28;20024;-73
2022/08/15 10:25:33;;;;;;;7.97;3.92;;;26.70;96.20;;;;;;5109834;28;20040;-73
2022/08/15 10:28:12;;;;;;;7.45;3.38;;;26.40;97.00;;;;;;5100702;28;20066;-73
2022/08/15 10:31:05;;;;;;;7.75;4.53;;;26.20;97.40;;;;;;5100525;28;20108;-73
2022/08/15 10:33:31;;;;;;;9.55;4.07;;;26.10;97.70;;;;;;5085514;28;20035;-73
2022/08/15 10:36:15;;;;;;;6.55;4.53;;;26.10;97.60;;;;;;5119031;27;20018;-73
2022/08/15 10:38:52;;;;;;;9.57;4.28;;;25.70;97.60;;;;;;5118477;28;20558;-72
2022/08/15 10:41:28;;;;;;;7.85;4.20;;;25.30;98.40;;;;;;5118666;28;20063;-73
2022/08/15 10:44:20;;;;;;;11.05;4.03;;;25.10;98.90;;;;;;5119028;28;20028;-72
2022/08/15 10:47:23;;;;;;;7.03;3.85;;;25.30;99.50;;;;;;5114443;28;20031;-72
2022/08/15 10:50:16;;;;;;;12.48;4.90;;;25.50;99.10;;;;;;5116859;28;20161;-73
2022/08/15 10:53:00;;;;;;;11.98;4.25;;;25.50;98.60;;;;;;5118718;28;20027;-73
2022/08/15 10:55:33;;;;;;;10.77;3.67;;;25.60;98.20;;;;;;5118545;28;20432;-73
2022/08/15 10:58:13;;;;;;;8.73;3.90;;;25.40;97.50;;;;;;5116113;28;20020;-73
2022/08/15 11:01:06;;;;;;;8.90;4.05;;;25.50;97.50;;;;;;5108660;28;20032;-73
2022/08/15 11:03:53;;;;;;;7.25;3.80;;;25.40;97.60;;;;;;5118605;28;20088;-73
2022/08/15 11:06:22;;;;;;;10.60;4.32;;;25.50;98.60;;;;;;5117890;28;20551;-73
2022/08/15 11:09:14;;;;;;;7.68;4.30;;;25.70;96.90;;;;;;5102980;28;20027;-72
2022/08/15 11:11:52;;;;;;;8.00;4.45;;;25.70;96.70;;;;;;5100436;28;20020;-72
2022/08/15 11:14:28;;;;;;;15.50;4.47;;;26.20;97.10;;;;;;5117123;28;20050;-72
2022/08/15 11:16:55;;;;;;;9.40;3.78;;;26.40;96.50;;;;;;5103391;28;20019;-73
2022/08/15 11:19:33;;;;;;;11.18;4.03;;;26.70;96.00;;;;;;5111262;28;20020;-72
2022/08/15 11:22:06;;;;;;;8.32;4.03;;;27.00;95.20;;;;;;5100101;28;20031;-72
2022/08/15 11:24:37;;;;;;;8.25;3.80;;;27.10;94.60;;;;;;5110524;28;20028;-72
2022/08/15 11:27:24;;;;;;;6.60;4.20;;;27.20;95.40;;;;;;5117869;28;20522;-72
2022/08/15 11:29:53;;;;;;;8.18;4.07;;;27.40;93.80;;;;;;5117382;28;20020;-72
2022/08/15 11:32:25;;;;;;;6.70;3.97;;;27.30;93.80;;;;;;5117795;28;20020;-72
2022/08/15 11:34:51;;;;;;;6.15;3.85;;;27.00;93.80;;;;;;5113903;28;20031;-74
2022/08/15 11:37:23;;;;;;;5.97;3.55;;;27.10;93.80;;;;;;5117858;28;20399;-73
2022/08/15 11:39:58;;;;;;;9.45;3.75;;;27.50;94.80;;;;;;5118004;28;20016;-72
2022/08/15 11:42:27;;;;;;;6.05;3.58;;;27.80;93.00;;;;;;5117760;28;20024;-72
2022/08/15 11:45:00;;;;;;;11.65;5.18;;;28.00;92.60;;;;;;5101764;28;20036;-72
2022/08/15 11:47:33;;;;;;;7.90;3.40;;;28.10;91.50;;;;;;5116947;28;20032;-73
2022/08/15 11:50:04;;;;;;;5.97;3.45;;;28.00;92.70;;;;;;5118112;28;20027;-72
2022/08/15 11:52:35;;;;;;;10.88;4.00;;;28.40;92.50;;;;;;5118222;28;20035;-74
2022/08/15 11:55:32;;;;;;;9.20;3.67;;;28.40;92.30;;;;;;5118589;28;20016;-72
2022/08/15 11:58:00;;;;;;;6.32;3.15;;;28.60;91.90;;;;;;5094418;28;20035;-74
2022/08/15 12:00:37;;;;;;;6.97;3.97;;;28.60;91.50;;;;;;5111236;28;20015;-73
2022/08/15 12:03:22;;;;;;;5.65;2.97;;;28.50;91.10;;;;;;5113400;28;20031;-73
2022/08/15 12:05:51;;;;;;;8.98;3.70;;;28.40;91.00;;;;;;5114682;28;20106;-73
2022/08/15 12:08:28;;;;;;;8.02;3.83;;;28.50;91.20;;;;;;5107682;28;20031;-74
2022/08/15 12:11:14;;;;;;;6.40;2.97;;;28.40;91.40;;;;;;5117966;28;20414;-75
2022/08/15 12:14:11;;;;;;;9.40;3.53;;;28.40;91.30;;;;;;5110757;28;20058;-74
2022/08/15 12:17:05;;;;;;;8.75;4.22;;;28.70;91.50;;;;;;5110889;28;20058;-73
2022/08/15 12:19:37;;;;;;;6.05;3.63;;;28.60;90.30;;;;;;5107040;28;20036;-73
2022/08/15 12:22:13;;;;;;;7.90;3.28;;;28.60;90.80;;;;;;5118163;28;20031;-74
2022/08/15 12:24:41;;;;;;;7.03;3.78;;;28.70;91.40;;;;;;5113219;28;20024;-74
2022/08/15 12:27:07;;;;;;;8.35;3.83;;;28.70;88.50;;;;;;5117893;28;20038;-73
2022/08/15 12:29:33;;;;;;;7.97;3.58;;;28.30;88.40;;;;;;5118024;28;20083;-73
2022/08/15 12:32:02;;;;;;;10.20;4.00;;;28.10;90.00;;;;;;5112488;28;20381;-73
2022/08/15 12:34:34;;;;;;;6.93;4.03;;;28.10;90.30;;;;;;5111732;28;20102;-72
2022/08/15 12:37:03;;;;;;;7.03;3.28;;;27.90;90.20;;;;;;5118043;28;20504;-74
2022/08/15 12:39:29;;;;;;;7.18;3.10;;;28.20;90.40;;;;;;5112485;28;20020;-73
2022/08/15 12:41:55;;;;;;;10.65;3.55;;;28.40;90.70;;;;;;5117765;28;20026;-73
2022/08/15 12:44:24;;;;;;;8.68;3.40;;;28.50;87.30;;;;;;5117959;28;20028;-74
2022/08/15 12:46:51;;;;;;;5.05;3.55;;;28.50;87.20;;;;;;5116274;28;20052;-73
2022/08/15 12:49:17;;;;;;;7.00;3.50;;;28.60;85.70;;;;;;5117543;28;20027;-72
2022/08/15 12:51:44;;;;;;;12.45;3.72;;;28.70;86.30;;;;;;5116458;28;20020;-72
2022/08/15 12:54:10;;;;;;;6.00;3.10;;;28.80;84.80;;;;;;5114948;28;20123;-75
2022/08/15 12:56:37;;;;;;;7.22;3.58;;;28.60;84.20;;;;;;5117467;28;20012;-73
2022/08/15 12:59:03;;;;;;;8.30;3.30;;;28.60;84.20;;;;;;5108780;28;20039;-73
2022/08/15 13:01:29;;;;;;;7.10;3.38;;;28.60;83.70;;;;;;5116000;28;20032;-73
2022/08/15 13:03:55;;;;;;;8.07;3.67;;;28.50;84.10;;;;;;5116326;28;20084;-74
2022/08/15 13:06:42;;;;;;;6.05;3.40;;;28.70;84.00;;;;;;5117661;28;20024;-73
2022/08/15 13:09:10;;;;;;;7.80;3.35;;;29.20;85.40;;;;;;5113779;28;20024;-74
2022/08/15 13:11:39;;;;;;;8.63;3.47;;;29.80;83.20;;;;;;5107817;28;20020;-74
2022/08/15 13:14:09;;;;;;;6.43;3.30;;;29.90;81.70;;;;;;5115942;28;20502;-73
2022/08/15 13:16:35;;;;;;;9.52;3.40;;;29.50;82.10;;;;;;5109994;28;20020;-73
2022/08/15 13:19:06;;;;;;;5.78;2.97;;;29.70;82.60;;;;;;5117329;28;20453;-76